Time;durP1;ratioP1;P1;durP2;ratioP2;P2;SDS_P1;SDS_P2;PMS_P1;PMS_P2;Temp;Humidity;BMP_temperature;BMP_pressure;BME280_temperature;BME280_humidity;BME280_pressure;Samples;Min_cycle;Max_cycle;Signal;HPM_P1;HPM_P2
2021/06/25 00:09:42;;;;;;;4.88;2.67;;;11.90;99.90;;;;;;20912245;28;20408;-48
2021/06/25 00:19:45;;;;;;;8.50;2.97;;;11.90;99.90;;;;;;20911263;28;20044;-49
2021/06/25 00:29:46;;;;;;;5.03;2.50;;;11.90;99.90;;;;;;20913963;28;20048;-49
2021/06/25 00:39:47;;;;;;;6.93;2.42;;;11.90;99.90;;;;;;20906923;28;20043;-49
2021/06/25 00:49:48;;;;;;;6.88;2.58;;;11.90;99.90;;;;;;20908165;28;20071;-49
2021/06/25 00:59:49;;;;;;;7.53;2.83;;;11.70;99.90;;;;;;20908609;28;20045;-49
2021/06/25 01:09:52;;;;;;;6.95;3.00;;;11.70;99.90;;;;;;20922211;28;20052;-48
2021/06/25 01:19:53;;;;;;;6.68;3.13;;;11.60;99.90;;;;;;20901688;28;20036;-49
2021/06/25 01:29:59;;;;;;;9.68;2.78;;;11.60;99.90;;;;;;20900919;28;20052;-49
2021/06/25 01:40:00;;;;;;;5.30;2.15;;;11.60;99.90;;;;;;20908801;28;20033;-49
2021/06/25 01:50:14;;;;;;;8.40;3.53;;;11.50;99.90;;;;;;20908247;28;20037;-49
2021/06/25 02:00:16;;;;;;;8.95;3.85;;;11.60;99.90;;;;;;20908824;28;20060;-49
2021/06/25 02:10:17;;;;;;;8.65;4.18;;;11.80;99.90;;;;;;20892577;28;20044;-49
2021/06/25 02:20:18;;;;;;;8.10;3.60;;;12.10;99.90;;;;;;20906900;28;20037;-49
2021/06/25 02:30:20;;;;;;;10.63;4.35;;;12.10;99.90;;;;;;20905738;28;20057;-49
2021/06/25 02:40:22;;;;;;;8.20;3.80;;;12.50;99.90;;;;;;20913638;28;20114;-49
2021/06/25 02:50:23;;;;;;;11.23;4.32;;;12.50;99.90;;;;;;20910687;28;20074;-50
2021/06/25 03:00:24;;;;;;;12.20;4.55;;;12.70;99.90;;;;;;20913899;28;20106;-49
2021/06/25 03:10:26;;;;;;;7.10;3.20;;;12.60;99.90;;;;;;20904196;28;20151;-50
2021/06/25 03:20:27;;;;;;;11.43;4.75;;;12.90;99.90;;;;;;20912974;28;20045;-49
2021/06/25 03:30:29;;;;;;;6.90;2.95;;;13.00;99.90;;;;;;20910816;28;20049;-49
2021/06/25 03:40:32;;;;;;;12.63;4.28;;;13.10;99.90;;;;;;20905314;28;20124;-49
2021/06/25 03:50:34;;;;;;;10.02;4.35;;;13.20;99.90;;;;;;20871394;28;20136;-50
2021/06/25 04:00:35;;;;;;;6.95;3.08;;;13.20;99.90;;;;;;20908872;28;20493;-50
2021/06/25 04:10:36;;;;;;;7.13;3.10;;;13.30;99.90;;;;;;20897125;28;20139;-50
2021/06/25 04:20:37;;;;;;;7.00;2.85;;;13.40;99.90;;;;;;20912564;28;20094;-49
2021/06/25 04:30:40;;;;;;;8.15;2.75;;;13.50;99.90;;;;;;20911676;28;20052;-48
2021/06/25 04:40:43;;;;;;;8.27;3.25;;;13.50;99.90;;;;;;20902715;28;20041;-49
2021/06/25 04:50:45;;;;;;;10.20;4.15;;;13.40;99.90;;;;;;20903034;28;20083;-48
2021/06/25 05:00:46;;;;;;;5.88;3.00;;;13.70;99.90;;;;;;20893993;28;20036;-49
2021/06/25 05:10:48;;;;;;;8.10;4.45;;;13.80;99.90;;;;;;20897894;28;20057;-49
2021/06/25 05:20:50;;;;;;;7.63;3.15;;;13.80;99.90;;;;;;20906305;28;20033;-49
2021/06/25 05:30:51;;;;;;;8.43;3.33;;;14.00;99.90;;;;;;20892628;28;20048;-49
2021/06/25 05:40:52;;;;;;;6.65;3.60;;;14.20;99.90;;;;;;20892255;28;20080;-49
2021/06/25 05:50:53;;;;;;;7.93;3.88;;;14.20;99.90;;;;;;20909617;28;20049;-49
2021/06/25 06:00:55;;;;;;;10.13;4.03;;;14.40;99.90;;;;;;20901243;28;20083;-50
2021/06/25 06:10:56;;;;;;;11.52;4.35;;;14.70;99.90;;;;;;20884051;28;20041;-50
2021/06/25 06:20:58;;;;;;;10.20;3.95;;;15.10;99.90;;;;;;20903295;28;20072;-49
2021/06/25 06:41:19;;;;;;;15.30;5.15;;;15.10;99.90;;;;;;20897622;28;21367;-50
2021/06/25 06:51:21;;;;;;;18.13;6.03;;;15.10;99.90;;;;;;20896190;28;20140;-49
2021/06/25 07:01:23;;;;;;;13.35;4.70;;;15.20;99.90;;;;;;20897860;28;20501;-49
2021/06/25 07:11:25;;;;;;;16.77;6.63;;;15.20;99.90;;;;;;20905788;28;20142;-49
2021/06/25 07:21:26;;;;;;;15.07;5.82;;;15.30;99.90;;;;;;20906163;28;20052;-48
2021/06/25 07:31:27;;;;;;;19.02;7.20;;;15.40;99.90;;;;;;20919870;28;20045;-49
2021/06/25 07:41:28;;;;;;;14.27;5.55;;;15.70;99.90;;;;;;20918655;28;20044;-49
2021/06/25 07:51:30;;;;;;;15.48;5.82;;;15.60;99.90;;;;;;20909408;28;20519;-49
2021/06/25 08:01:31;;;;;;;13.70;6.70;;;15.90;99.90;;;;;;20905686;28;20048;-49
2021/06/25 08:11:33;;;;;;;17.65;7.00;;;16.20;99.90;;;;;;20921340;28;20041;-49
2021/06/25 08:21:34;;;;;;;15.90;5.78;;;16.70;99.90;;;;;;20907008;28;20047;-49
2021/06/25 08:31:35;;;;;;;12.32;5.05;;;17.00;99.90;;;;;;20905627;28;20292;-50
2021/06/25 08:41:38;;;;;;;14.18;5.63;;;17.20;99.90;;;;;;20912142;28;20783;-50
2021/06/25 08:51:39;;;;;;;17.42;5.80;;;17.20;99.90;;;;;;20895140;28;20064;-49
2021/06/25 09:01:42;;;;;;;14.20;5.22;;;17.80;99.90;;;;;;20904700;28;20514;-49
2021/06/25 09:11:43;;;;;;;14.27;5.15;;;18.10;99.90;;;;;;20900591;28;20550;-49
2021/06/25 09:22:00;;;;;;;10.25;5.22;;;18.50;99.90;;;;;;20908747;28;20518;-49
2021/06/25 09:32:06;;;;;;;13.60;6.10;;;19.00;99.90;;;;;;20917321;28;20048;-49
2021/06/25 09:42:28;;;;;;;9.82;4.65;;;19.20;99.90;;;;;;20907941;28;20395;-49
2021/06/25 09:52:46;;;;;;;10.15;5.38;;;19.30;99.90;;;;;;20897218;28;20497;-49
2021/06/25 10:02:47;;;;;;;12.07;5.05;;;19.50;99.90;;;;;;20897135;28;20159;-49
2021/06/25 10:12:48;;;;;;;16.85;6.32;;;19.60;99.90;;;;;;20896609;28;20583;-49
2021/06/25 10:22:50;;;;;;;16.40;6.07;;;19.50;99.90;;;;;;20908886;28;20479;-49
2021/06/25 10:32:51;;;;;;;16.75;7.40;;;19.40;99.90;;;;;;20897257;28;20408;-49
2021/06/25 10:42:54;;;;;;;18.45;7.40;;;19.40;99.90;;;;;;20904545;28;20559;-49
2021/06/25 10:53:12;;;;;;;17.90;7.50;;;19.20;99.90;;;;;;20889790;28;20400;-49
2021/06/25 11:03:30;;;;;;;19.33;8.05;;;19.30;99.90;;;;;;20903482;28;20565;-49
2021/06/25 11:13:36;;;;;;;16.57;7.40;;;19.20;99.90;;;;;;20922041;28;20488;-49
2021/06/25 11:23:37;;;;;;;18.02;7.20;;;19.00;99.90;;;;;;20908163;28;20566;-49
2021/06/25 11:33:42;;;;;;;12.10;5.07;;;18.90;99.90;;;;;;20921119;28;20392;-49
2021/06/25 11:43:47;;;;;;;14.13;4.95;;;18.90;99.90;;;;;;20906265;28;20504;-49
2021/06/25 11:53:48;;;;;;;14.75;6.65;;;18.60;99.90;;;;;;20897852;28;20463;-49
2021/06/25 12:03:50;;;;;;;10.52;4.90;;;18.50;99.90;;;;;;20909942;28;20053;-49
2021/06/25 12:14:03;;;;;;;8.52;4.05;;;18.30;99.90;;;;;;20919018;28;20595;-49
2021/06/25 12:24:05;;;;;;;9.10;4.22;;;18.00;99.90;;;;;;20910708;28;20500;-49
2021/06/25 12:34:12;;;;;;;8.82;4.22;;;17.80;99.90;;;;;;20907491;28;20510;-49
2021/06/25 12:44:21;;;;;;;12.67;5.37;;;17.80;99.90;;;;;;20904540;28;20562;-49
2021/06/25 12:54:31;;;;;;;14.55;4.97;;;18.00;99.90;;;;;;20905534;28;20405;-49
2021/06/25 13:04:33;;;;;;;10.48;5.72;;;18.10;99.90;;;;;;20909248;28;20483;-49
2021/06/25 13:14:42;;;;;;;10.23;4.40;;;18.30;99.90;;;;;;20914976;28;20488;-49
2021/06/25 13:24:50;;;;;;;13.43;4.65;;;18.70;99.90;;;;;;20904603;28;20891;-50
2021/06/25 13:34:53;;;;;;;11.43;5.00;;;19.20;99.90;;;;;;20907192;28;20577;-47
2021/06/25 13:45:12;;;;;;;13.32;6.40;;;19.30;99.90;;;;;;20903676;28;20052;-50
2021/06/25 13:55:25;;;;;;;12.55;5.22;;;19.20;99.90;;;;;;20897590;28;20442;-50
2021/06/25 14:05:26;;;;;;;14.43;4.90;;;18.90;99.90;;;;;;20899567;28;20518;-50
2021/06/25 14:15:48;;;;;;;15.50;5.30;;;18.80;99.90;;;;;;20674771;28;20052;-49
2021/06/25 14:25:49;;;;;;;10.13;4.57;;;18.90;99.90;;;;;;20572194;28;20083;-48
2021/06/25 14:35:51;;;;;;;9.20;4.30;;;18.90;99.90;;;;;;20551921;28;20150;-49
2021/06/25 14:45:53;;;;;;;8.45;4.45;;;19.00;99.90;;;;;;20591576;28;23985;-49
2021/06/25 14:55:54;;;;;;;12.73;4.63;;;19.10;99.90;;;;;;20586906;28;20889;-49
2021/06/25 15:05:56;;;;;;;15.02;5.50;;;19.00;99.90;;;;;;20596834;28;20457;-49
2021/06/25 15:15:57;;;;;;;13.90;6.13;;;18.80;99.90;;;;;;20584888;28;20202;-49
2021/06/25 15:25:58;;;;;;;10.10;4.43;;;18.80;99.90;;;;;;20591526;28;20086;-49
2021/06/25 15:35:59;;;;;;;9.75;4.57;;;18.70;99.90;;;;;;20586443;28;20448;-49
2021/06/25 15:46:01;;;;;;;9.70;4.03;;;18.40;99.90;;;;;;20574246;28;20530;-49
2021/06/25 15:56:02;;;;;;;12.25;5.18;;;18.30;99.90;;;;;;20589566;28;20587;-49
2021/06/25 16:06:04;;;;;;;12.38;5.35;;;18.00;99.90;;;;;;20574302;28;20621;-50
2021/06/25 16:16:06;;;;;;;10.77;5.05;;;17.90;99.90;;;;;;20583854;28;20044;-50
2021/06/25 16:26:08;;;;;;;12.57;5.88;;;17.80;99.90;;;;;;20886287;28;20443;-50
2021/06/25 16:36:09;;;;;;;10.20;5.35;;;17.70;99.90;;;;;;20890598;28;20044;-50
2021/06/25 16:46:11;;;;;;;12.07;4.95;;;17.50;99.90;;;;;;20798536;28;20172;-50
2021/06/25 16:56:13;;;;;;;15.95;6.65;;;17.40;99.90;;;;;;20594332;28;20044;-50
2021/06/25 17:06:15;;;;;;;12.63;5.20;;;17.30;99.90;;;;;;20588844;28;20186;-50
2021/06/25 17:16:16;;;;;;;15.25;7.03;;;17.20;99.90;;;;;;20590615;28;20045;-50
2021/06/25 17:26:18;;;;;;;13.93;5.25;;;17.20;99.90;;;;;;20568327;28;20068;-50
2021/06/25 17:36:19;;;;;;;16.10;5.00;;;17.20;99.90;;;;;;20579468;28;20041;-51
2021/06/25 17:46:21;;;;;;;10.48;6.05;;;17.10;99.90;;;;;;20595442;28;20036;-50
2021/06/25 17:56:22;;;;;;;12.80;6.22;;;17.40;99.90;;;;;;20893161;28;20464;-50
2021/06/25 18:06:23;;;;;;;16.20;6.07;;;17.20;99.90;;;;;;20887761;28;20056;-50
2021/06/25 18:16:25;;;;;;;17.73;5.88;;;17.30;99.90;;;;;;20892166;28;20053;-50
2021/06/25 18:26:27;;;;;;;15.05;6.32;;;17.20;99.90;;;;;;20896753;28;20045;-48
2021/06/25 18:36:28;;;;;;;20.20;6.47;;;17.00;99.90;;;;;;20897136;28;20037;-50
2021/06/25 18:46:29;;;;;;;14.80;5.00;;;17.00;99.90;;;;;;20897640;28;20056;-50
2021/06/25 18:56:30;;;;;;;14.13;5.63;;;17.00;99.90;;;;;;20892415;28;20048;-50
2021/06/25 19:06:32;;;;;;;13.82;4.80;;;17.00;99.90;;;;;;20892367;28;20048;-50
2021/06/25 19:16:33;;;;;;;10.32;4.25;;;16.90;99.90;;;;;;20890397;28;20380;-50
2021/06/25 19:26:35;;;;;;;13.70;5.40;;;17.00;99.90;;;;;;20843698;28;20546;-50
2021/06/25 19:36:37;;;;;;;10.98;4.13;;;17.00;99.90;;;;;;20439876;28;20055;-50
2021/06/25 19:46:39;;;;;;;10.75;4.93;;;16.90;99.90;;;;;;20433346;28;20049;-50
2021/06/25 19:56:40;;;;;;;11.40;4.25;;;16.80;99.90;;;;;;20847592;28;20135;-50
2021/06/25 20:06:43;;;;;;;11.00;4.72;;;16.80;99.90;;;;;;20906776;28;20133;-50
2021/06/25 20:16:46;;;;;;;12.88;6.35;;;16.80;99.90;;;;;;20903080;28;20118;-50
2021/06/25 20:26:48;;;;;;;9.40;4.90;;;16.70;99.90;;;;;;20903455;28;20258;-50
2021/06/25 20:36:49;;;;;;;11.95;4.55;;;16.90;99.90;;;;;;20902933;28;20041;-50
2021/06/25 20:46:50;;;;;;;11.95;4.85;;;16.90;99.90;;;;;;20901047;28;20075;-50
2021/06/25 20:56:51;;;;;;;13.27;4.43;;;16.80;99.90;;;;;;20912591;28;20124;-50
2021/06/25 21:06:52;;;;;;;11.27;4.75;;;16.80;99.90;;;;;;20899872;28;20198;-50
2021/06/25 21:16:53;;;;;;;10.75;4.25;;;16.70;99.90;;;;;;20895106;28;20088;-50
2021/06/25 21:26:54;;;;;;;10.57;4.28;;;16.70;99.90;;;;;;20907308;28;20052;-50
2021/06/25 21:36:57;;;;;;;8.80;3.65;;;16.70;99.90;;;;;;20900021;28;20037;-51
2021/06/25 21:46:58;;;;;;;8.38;3.95;;;16.60;99.90;;;;;;20892337;28;20037;-51
2021/06/25 21:56:59;;;;;;;8.45;3.85;;;16.60;99.90;;;;;;20902335;28;20044;-50
2021/06/25 22:07:00;;;;;;;9.35;4.65;;;16.70;99.90;;;;;;20898254;28;20110;-50
2021/06/25 22:17:02;;;;;;;9.82;4.53;;;16.70;99.90;;;;;;20891125;28;20141;-51
2021/06/25 22:27:04;;;;;;;8.98;3.80;;;16.60;99.90;;;;;;20894094;28;20044;-51
2021/06/25 22:37:05;;;;;;;8.68;3.10;;;16.40;99.90;;;;;;20903081;28;20068;-51
2021/06/25 22:47:06;;;;;;;7.45;2.88;;;16.30;99.90;;;;;;20897336;28;20072;-51
2021/06/25 22:57:07;;;;;;;8.20;3.40;;;16.20;99.90;;;;;;20898640;28;20078;-51
2021/06/25 23:07:09;;;;;;;6.57;2.47;;;16.10;99.90;;;;;;20916791;28;20044;-51
2021/06/25 23:17:10;;;;;;;6.07;2.45;;;16.00;99.90;;;;;;20906881;28;20055;-51
2021/06/25 23:27:11;;;;;;;6.07;2.60;;;15.90;99.90;;;;;;20913366;28;20080;-50
2021/06/25 23:37:12;;;;;;;4.85;2.10;;;15.90;99.90;;;;;;20910503;28;20053;-50
2021/06/25 23:47:13;;;;;;;8.32;3.45;;;15.80;99.90;;;;;;20906957;28;20055;-50
2021/06/25 23:57:14;;;;;;;7.45;3.38;;;15.70;99.90;;;;;;20912214;28;20295;-50
